createdAt,value
2019-04-11T00:01:53.486Z,100.00
2019-04-11T00:04:24.246Z,100.00
2019-04-11T00:06:54.100Z,100.00
2019-04-11T00:09:24.881Z,100.00
2019-04-11T00:11:54.806Z,100.00
2019-04-11T00:14:24.484Z,100.00
2019-04-11T00:16:54.300Z,100.00
2019-04-11T00:19:25.212Z,100.00
2019-04-11T00:21:55.243Z,100.00
2019-04-11T00:24:27.111Z,100.00
2019-04-11T00:26:57.079Z,100.00
2019-04-11T00:29:26.785Z,100.00
2019-04-11T00:31:57.013Z,100.00
2019-04-11T00:34:26.942Z,100.00
2019-04-11T00:36:56.847Z,100.00
2019-04-11T00:39:27.801Z,100.00
2019-04-11T00:41:58.537Z,100.00
2019-04-11T00:44:28.401Z,100.00
2019-04-11T00:46:58.502Z,100.00
2019-04-11T00:49:28.344Z,100.00
2019-04-11T00:51:58.301Z,100.00
2019-04-11T00:54:29.020Z,100.00
2019-04-11T00:56:58.852Z,100.00
2019-04-11T00:59:28.562Z,100.00
2019-04-11T01:01:58.896Z,100.00
2019-04-11T01:04:28.719Z,100.00
2019-04-11T01:06:58.568Z,100.00
2019-04-11T01:09:28.478Z,100.00
2019-04-11T01:11:58.485Z,100.00
2019-04-11T01:14:28.277Z,100.00
2019-04-11T01:16:58.840Z,100.00
2019-04-11T01:19:29.072Z,100.00
2019-04-11T01:21:59.525Z,100.00
2019-04-11T01:24:29.202Z,100.00
2019-04-11T01:26:59.330Z,100.00
2019-04-11T01:29:29.337Z,100.00
2019-04-11T01:32:02.303Z,100.00
2019-04-11T01:34:32.922Z,100.00
2019-04-11T01:37:03.731Z,100.00
2019-04-11T01:40:07.954Z,100.00
2019-04-11T01:42:37.721Z,100.00
2019-04-11T01:45:09.593Z,100.00
2019-04-11T01:47:59.374Z,100.00
2019-04-11T01:50:32.852Z,100.00
2019-04-11T01:53:02.736Z,100.00
2019-04-11T01:55:32.632Z,100.00
2019-04-11T01:58:02.616Z,100.00
2019-04-11T02:00:44.788Z,100.00
2019-04-11T02:03:15.675Z,100.00
2019-04-11T02:05:45.368Z,100.00
2019-04-11T02:08:15.393Z,100.00
2019-04-11T02:10:45.353Z,100.00
2019-04-11T02:13:15.401Z,100.00
2019-04-11T02:15:46.222Z,100.00
2019-04-11T02:18:16.121Z,100.00
2019-04-11T02:20:45.871Z,100.00
2019-04-11T02:23:41.409Z,100.00
2019-04-11T02:26:22.090Z,100.00
2019-04-11T02:28:51.709Z,100.00
2019-04-11T02:31:22.861Z,100.00
2019-04-11T02:33:53.080Z,100.00
2019-04-11T02:36:22.809Z,100.00
2019-04-11T02:38:55.091Z,100.00
2019-04-11T02:41:25.468Z,100.00
2019-04-11T02:43:55.202Z,100.00
2019-04-11T02:46:35.578Z,100.00
2019-04-11T02:48:57.182Z,100.00
2019-04-11T02:51:28.827Z,100.00
2019-04-11T02:53:59.366Z,100.00
2019-04-11T02:56:31.097Z,100.00
2019-04-11T02:59:02.249Z,100.00
2019-04-11T03:01:34.134Z,100.00
2019-04-11T03:04:04.968Z,100.00
2019-04-11T03:06:36.233Z,100.00
2019-04-11T03:09:07.710Z,100.00
2019-04-11T03:11:38.681Z,100.00
2019-04-11T03:14:09.807Z,100.00
2019-04-11T03:16:52.072Z,100.00
2019-04-11T03:19:25.070Z,100.00
2019-04-11T03:21:46.471Z,100.00
2019-04-11T03:24:15.472Z,100.00
2019-04-11T03:26:46.290Z,100.00
2019-04-11T03:29:17.634Z,100.00
2019-04-11T03:32:31.587Z,100.00
2019-04-11T03:37:42.962Z,100.00
2019-04-11T03:39:53.160Z,100.00
2019-04-11T03:42:17.430Z,100.00
2019-04-11T03:44:39.472Z,100.00
2019-04-11T03:47:16.687Z,100.00
2019-04-11T03:49:41.932Z,100.00
2019-04-11T03:52:09.787Z,100.00
2019-04-11T03:54:38.921Z,100.00
2019-04-11T03:57:09.868Z,100.00
2019-04-11T03:59:40.712Z,100.00
2019-04-11T04:02:12.569Z,100.00
2019-04-11T04:04:43.628Z,100.00
2019-04-11T04:07:16.429Z,100.00
2019-04-11T04:09:46.307Z,100.00
2019-04-11T04:12:16.753Z,100.00
2019-04-11T04:14:53.941Z,100.00
2019-04-11T04:17:49.620Z,100.00
2019-04-11T04:20:37.380Z,100.00
2019-04-11T04:23:27.359Z,100.00
2019-04-11T04:25:58.812Z,100.00
2019-04-11T04:28:29.423Z,100.00
2019-04-11T04:31:00.234Z,100.00
2019-04-11T04:33:31.386Z,100.00
2019-04-11T04:36:02.555Z,100.00
2019-04-11T04:38:33.857Z,100.00
2019-04-11T04:41:16.727Z,100.00
2019-04-11T04:43:36.726Z,100.00
2019-04-11T04:46:23.720Z,100.00
2019-04-11T04:48:38.094Z,100.00
2019-04-11T04:51:11.162Z,100.00
2019-04-11T04:53:41.055Z,100.00
2019-04-11T04:56:13.276Z,100.00
2019-04-11T04:58:44.226Z,100.00
2019-04-11T05:01:15.201Z,100.00
2019-04-11T05:03:46.622Z,100.00
2019-04-11T05:06:18.632Z,100.00
2019-04-11T05:08:49.984Z,100.00
2019-04-11T05:11:20.960Z,100.00
2019-04-11T05:13:51.839Z,100.00
2019-04-11T05:16:21.714Z,100.00
2019-04-11T05:18:52.492Z,100.00
2019-04-11T05:21:23.315Z,100.00
2019-04-11T05:23:52.958Z,100.00
2019-04-11T05:26:23.615Z,100.00
2019-04-11T05:28:53.385Z,100.00
2019-04-11T05:31:26.975Z,100.00
2019-04-11T05:33:56.743Z,100.00
2019-04-11T05:36:26.385Z,100.00
2019-04-11T05:38:56.046Z,100.00
2019-04-11T05:41:26.209Z,100.00
2019-04-11T05:44:00.794Z,100.00
2019-04-11T05:46:35.209Z,100.00
2019-04-11T05:49:21.067Z,100.00
2019-04-11T05:52:02.104Z,100.00
2019-04-11T05:54:47.433Z,100.00
2019-04-11T05:57:15.877Z,100.00
2019-04-11T05:59:49.916Z,100.00
2019-04-11T06:02:37.663Z,100.00
2019-04-11T06:05:43.170Z,100.00
2019-04-11T06:08:21.351Z,100.00
2019-04-11T06:11:52.178Z,100.00
2019-04-11T06:14:57.915Z,100.00
2019-04-11T06:17:27.519Z,100.00
2019-04-11T06:20:14.922Z,100.00
2019-04-11T06:22:51.321Z,100.00
2019-04-11T06:25:39.096Z,100.00
2019-04-11T06:28:24.329Z,100.00
2019-04-11T06:31:11.877Z,100.00
2019-04-11T06:33:55.258Z,100.00
2019-04-11T06:36:43.405Z,100.00
2019-04-11T06:39:31.979Z,100.00
2019-04-11T06:42:07.719Z,100.00
2019-04-11T06:45:09.218Z,100.00
2019-04-11T06:48:03.186Z,100.00
2019-04-11T06:50:41.721Z,100.00
2019-04-11T06:53:13.262Z,100.00
2019-04-11T06:56:01.810Z,100.00
2019-04-11T06:58:35.510Z,100.00
2019-04-11T07:01:09.839Z,100.00
2019-04-11T07:03:45.002Z,100.00
2019-04-11T07:06:21.855Z,100.00
2019-04-11T07:09:03.298Z,100.00
2019-04-11T07:11:46.214Z,100.00
2019-04-11T07:14:29.144Z,100.00
2019-04-11T07:17:18.887Z,100.00
2019-04-11T07:20:06.738Z,97.34
2019-04-11T07:22:55.288Z,100.00
2019-04-11T07:25:40.098Z,98.32
2019-04-11T07:28:21.389Z,97.77
2019-04-11T07:31:08.520Z,99.74
2019-04-11T07:34:06.201Z,100.00
2019-04-11T07:37:10.490Z,93.07
2019-04-11T07:40:09.321Z,87.26
2019-04-11T07:42:52.122Z,94.69
2019-04-11T07:45:26.613Z,97.39
2019-04-11T07:48:02.839Z,93.09
2019-04-11T07:50:33.324Z,84.33
2019-04-11T07:53:04.877Z,91.12
2019-04-11T07:55:34.797Z,88.24
2019-04-11T07:58:24.657Z,84.61
2019-04-11T08:01:11.098Z,82.19
2019-04-11T08:03:58.277Z,80.08
2019-04-11T08:06:47.948Z,82.24
2019-04-11T08:09:35.789Z,82.93
2019-04-11T08:12:27.607Z,84.01
2019-04-11T08:15:15.453Z,77.76
2019-04-11T08:17:46.096Z,74.95
2019-04-11T08:20:33.391Z,77.00
2019-04-11T08:23:05.661Z,76.47
2019-04-11T08:25:53.644Z,78.00
2019-04-11T08:28:24.714Z,79.19
2019-04-11T08:31:16.219Z,73.72
2019-04-11T08:33:46.735Z,72.98
2019-04-11T08:36:38.182Z,69.44
2019-04-11T08:39:39.598Z,71.81
2019-04-11T08:42:33.995Z,73.01
2019-04-11T08:45:06.026Z,68.79
2019-04-11T08:47:47.680Z,65.68
2019-04-11T08:50:16.997Z,66.10
2019-04-11T08:52:57.788Z,66.42
2019-04-11T08:55:48.550Z,65.68
2019-04-11T08:58:22.621Z,64.61
2019-04-11T09:01:00.433Z,61.91
2019-04-11T09:03:35.229Z,61.37
2019-04-11T09:06:22.935Z,60.20
2019-04-11T09:09:18.811Z,61.10
2019-04-11T09:12:00.539Z,57.02
2019-04-11T09:14:48.531Z,58.22
2019-04-11T09:17:30.429Z,56.87
2019-04-11T09:23:39.337Z,51.27
2019-04-11T09:26:25.855Z,51.75
2019-04-11T09:28:57.729Z,51.75
2019-04-11T09:31:52.327Z,52.90
2019-04-11T09:34:48.225Z,54.38
2019-04-11T09:37:30.052Z,50.89
2019-04-11T09:40:26.086Z,51.81
2019-04-11T09:43:31.676Z,51.99
2019-04-11T09:46:30.299Z,49.73
2019-04-11T09:49:27.196Z,49.76
2019-04-11T09:52:06.029Z,49.93
2019-04-11T09:55:04.479Z,50.18
2019-04-11T09:57:48.159Z,50.71
2019-04-11T10:00:45.221Z,50.50
2019-04-11T10:03:23.992Z,50.56
2019-04-11T10:06:15.975Z,49.50
2019-04-11T10:12:31.879Z,46.40
2019-04-11T10:15:03.026Z,47.80
2019-04-11T10:17:50.703Z,48.20
2019-04-11T10:20:20.416Z,49.38
2019-04-11T10:23:20.897Z,46.37
2019-04-11T10:25:54.038Z,47.87
2019-04-11T10:28:41.778Z,49.42
2019-04-11T10:31:16.341Z,48.84
2019-04-11T10:34:04.595Z,48.87
2019-04-11T10:36:41.898Z,47.97
2019-04-11T10:39:31.645Z,49.52
2019-04-11T10:42:04.347Z,47.88
2019-04-11T10:45:02.754Z,50.89
2019-04-11T10:47:34.053Z,50.46
2019-04-11T10:50:17.417Z,49.28
2019-04-11T10:52:55.581Z,47.98
2019-04-11T10:55:47.557Z,50.01
2019-04-11T10:58:22.560Z,46.50
2019-04-11T11:01:29.376Z,47.00
2019-04-11T11:04:07.927Z,46.43
2019-04-11T11:06:37.962Z,44.76
2019-04-11T11:09:16.360Z,45.60
2019-04-11T11:12:08.522Z,48.42
2019-04-11T11:15:09.540Z,46.77
2019-04-11T11:18:32.091Z,46.89
2019-04-11T11:20:55.046Z,47.18
2019-04-11T11:23:42.942Z,48.10
2019-04-11T11:26:33.896Z,48.85
2019-04-11T11:29:32.021Z,47.93
2019-04-11T11:32:09.195Z,47.55
2019-04-11T11:35:07.391Z,46.83
2019-04-11T11:37:49.181Z,47.38
2019-04-11T11:40:47.961Z,49.82
2019-04-11T11:43:25.878Z,49.62
2019-04-11T11:46:06.834Z,49.11
2019-04-11T11:48:39.536Z,47.83
2019-04-11T11:51:26.947Z,47.63
2019-04-11T11:54:23.998Z,47.42
2019-04-11T11:59:46.068Z,47.02
2019-04-11T12:02:23.614Z,48.35
2019-04-11T12:05:26.319Z,49.21
2019-04-11T12:08:15.338Z,48.62
2019-04-11T12:10:51.444Z,48.93
2019-04-11T12:13:45.870Z,49.22
2019-04-11T12:16:21.320Z,45.86
2019-04-11T12:18:58.377Z,46.40
2019-04-11T12:21:31.398Z,47.03
2019-04-11T12:24:29.413Z,47.64
2019-04-11T12:27:23.051Z,49.22
2019-04-11T12:30:10.905Z,48.10
2019-04-11T12:33:01.667Z,48.96
2019-04-11T12:35:52.833Z,50.36
2019-04-11T12:38:56.490Z,52.12
2019-04-11T12:41:47.518Z,49.18
2019-04-11T12:44:51.126Z,49.93
2019-04-11T12:47:25.985Z,51.54
2019-04-11T12:50:29.552Z,50.83
2019-04-11T12:53:13.144Z,51.98
2019-04-11T12:56:00.279Z,48.84
2019-04-11T12:58:42.315Z,49.97
2019-04-11T13:01:30.650Z,48.97
2019-04-11T13:04:37.452Z,50.68
2019-04-11T13:07:35.343Z,50.78
2019-04-11T13:10:19.503Z,50.87
2019-04-11T13:13:11.174Z,49.97
2019-04-11T13:15:49.490Z,49.36
2019-04-11T13:18:36.584Z,48.55
2019-04-11T13:21:27.682Z,48.22
2019-04-11T13:24:16.184Z,48.26
2019-04-11T13:27:09.788Z,48.62
2019-04-11T13:30:04.726Z,49.66
2019-04-11T13:32:54.002Z,49.65
2019-04-11T13:35:54.901Z,49.93
2019-04-11T13:38:28.363Z,51.07
2019-04-11T13:44:19.369Z,50.77
2019-04-11T13:46:59.015Z,54.73
2019-04-11T13:49:37.992Z,53.66
2019-04-11T13:52:29.404Z,54.95
2019-04-11T13:55:20.935Z,58.03
2019-04-11T13:58:12.574Z,62.50
2019-04-11T14:00:47.253Z,59.23
2019-04-11T14:03:48.060Z,58.33
2019-04-11T14:06:34.860Z,56.44
2019-04-11T14:09:32.637Z,56.34
2019-04-11T14:12:05.064Z,55.30
2019-04-11T14:14:36.741Z,53.98
2019-04-11T14:17:18.608Z,55.13
2019-04-11T14:20:14.382Z,57.25
2019-04-11T14:23:02.934Z,54.08
2019-04-11T14:25:57.489Z,53.85
2019-04-11T14:28:31.014Z,53.65
2019-04-11T14:31:37.718Z,55.22
2019-04-11T14:34:20.750Z,53.85
2019-04-11T14:37:04.946Z,52.42
2019-04-11T14:39:37.006Z,51.74
2019-04-11T14:42:27.062Z,52.87
2019-04-11T14:44:57.697Z,51.13
2019-04-11T14:47:53.362Z,51.08
2019-04-11T14:50:22.994Z,48.90
2019-04-11T14:53:10.623Z,50.17
2019-04-11T14:55:42.473Z,50.81
2019-04-11T14:58:36.042Z,50.21
2019-04-11T15:01:09.739Z,49.64
2019-04-11T15:04:01.385Z,50.01
2019-04-11T15:07:10.576Z,50.41
2019-04-11T15:09:56.687Z,51.06
2019-04-11T15:12:27.747Z,50.21
2019-04-11T15:18:22.211Z,49.94
2019-04-11T15:21:13.714Z,49.09
2019-04-11T15:23:45.746Z,49.26
2019-04-11T15:26:38.920Z,48.73
2019-04-11T15:29:22.298Z,49.19
2019-04-11T15:32:29.251Z,47.67
2019-04-11T15:35:04.726Z,47.27
2019-04-11T15:38:05.321Z,48.73
2019-04-11T15:40:40.256Z,49.19
2019-04-11T15:43:43.344Z,49.46
2019-04-11T15:46:23.150Z,48.57
2019-04-11T15:49:20.855Z,48.15
2019-04-11T15:51:58.511Z,49.02
2019-04-11T15:54:47.070Z,49.13
2019-04-11T15:57:43.023Z,49.87
2019-04-11T16:00:43.612Z,48.91
2019-04-11T16:03:16.891Z,49.43
2019-04-11T16:06:04.242Z,48.88
2019-04-11T16:08:51.475Z,49.12
2019-04-11T16:11:39.947Z,49.60
2019-04-11T16:14:16.967Z,49.69
2019-04-11T16:17:13.775Z,48.55
2019-04-11T16:20:01.791Z,48.13
2019-04-11T16:22:46.118Z,50.86
2019-04-11T16:25:21.173Z,48.10
2019-04-11T16:28:12.890Z,48.11
2019-04-11T16:30:47.438Z,47.82
2019-04-11T16:33:51.016Z,48.05
2019-04-11T16:36:39.165Z,48.43
2019-04-11T16:39:27.593Z,49.20
2019-04-11T16:43:24.564Z,48.34
2019-04-11T16:46:10.336Z,48.79
2019-04-11T16:48:39.927Z,48.21
2019-04-11T16:51:09.529Z,48.43
2019-04-11T16:53:39.148Z,47.27
2019-04-11T16:56:12.586Z,47.65
2019-04-11T16:59:20.027Z,48.11
2019-04-11T17:01:48.264Z,47.83
2019-04-11T17:04:17.918Z,48.23
2019-04-11T17:07:00.504Z,47.74
2019-04-11T17:09:35.074Z,47.69
2019-04-11T17:12:04.775Z,48.32
2019-04-11T17:14:34.376Z,49.18
2019-04-11T17:17:14.498Z,49.07
2019-04-11T17:19:36.246Z,49.86
2019-04-11T17:22:08.223Z,50.75
2019-04-11T17:24:37.923Z,48.82
2019-04-11T17:27:07.677Z,48.88
2019-04-11T17:29:37.463Z,49.57
2019-04-11T17:32:07.123Z,49.17
2019-04-11T17:34:36.792Z,48.79
2019-04-11T17:41:48.671Z,49.93
2019-04-11T17:44:55.994Z,50.56
2019-04-11T17:47:17.085Z,51.72
2019-04-11T17:49:46.732Z,51.86
2019-04-11T17:52:16.445Z,51.91
2019-04-11T17:54:46.075Z,51.92
2019-04-11T17:57:15.724Z,51.46
2019-04-11T17:59:45.387Z,51.61
2019-04-11T18:02:14.980Z,52.11
2019-04-11T18:04:47.833Z,51.75
2019-04-11T18:07:17.653Z,51.29
2019-04-11T18:09:47.464Z,51.31
2019-04-11T18:12:17.216Z,51.33
2019-04-11T18:14:46.800Z,52.29
2019-04-11T18:17:16.681Z,51.87
2019-04-11T18:19:46.437Z,51.09
2019-04-11T18:22:16.376Z,51.29
2019-04-11T18:24:49.877Z,51.71
2019-04-11T18:27:17.402Z,52.48
2019-04-11T18:29:47.036Z,52.23
2019-04-11T18:32:16.781Z,51.33
2019-04-11T18:34:46.462Z,51.73
2019-04-11T18:37:16.114Z,52.86
2019-04-11T18:39:45.717Z,52.56
2019-04-11T18:42:15.299Z,51.62
2019-04-11T18:44:45.011Z,51.32
2019-04-11T18:47:14.637Z,51.53
2019-04-11T18:49:44.377Z,50.35
2019-04-11T18:52:19.700Z,50.63
2019-04-11T18:54:47.591Z,50.41
2019-04-11T18:57:17.203Z,50.31
2019-04-11T18:59:46.816Z,50.52
2019-04-11T19:02:16.584Z,51.82
2019-04-11T19:04:46.170Z,50.82
2019-04-11T19:07:27.155Z,51.15
2019-04-11T19:09:47.178Z,51.14
2019-04-11T19:12:19.799Z,50.46
2019-04-11T19:14:49.495Z,50.47
2019-04-11T19:17:22.267Z,50.71
2019-04-11T19:19:51.824Z,52.78
2019-04-11T19:22:36.801Z,51.41
2019-04-11T19:24:53.550Z,51.55
2019-04-11T19:27:23.138Z,51.19
2019-04-11T19:29:55.574Z,51.55
2019-04-11T19:32:24.520Z,51.40
2019-04-11T19:34:54.160Z,52.32
2019-04-11T19:37:23.776Z,51.24
2019-04-11T19:39:53.442Z,50.38
2019-04-11T19:42:23.895Z,50.43
2019-04-11T19:44:53.542Z,50.74
2019-04-11T19:47:23.182Z,50.02
2019-04-11T19:49:52.812Z,50.42
2019-04-11T19:52:22.461Z,50.54
2019-04-11T19:54:52.803Z,50.61
2019-04-11T19:57:22.486Z,50.10
2019-04-11T19:59:54.481Z,49.85
2019-04-11T20:02:24.097Z,49.79
2019-04-11T20:04:57.447Z,50.90
2019-04-11T20:07:25.106Z,49.99
2019-04-11T20:09:54.744Z,52.18
2019-04-11T20:12:24.361Z,51.97
2019-04-11T20:14:53.964Z,57.64
2019-04-11T20:17:23.584Z,58.29
2019-04-11T20:20:01.277Z,60.44
2019-04-11T20:22:24.688Z,64.16
2019-04-11T20:24:54.297Z,59.90
2019-04-11T20:27:23.929Z,61.81
2019-04-11T20:29:55.307Z,62.00
2019-04-11T20:32:25.130Z,66.48
2019-04-11T20:34:54.731Z,61.77
2019-04-11T20:37:24.653Z,64.34
2019-04-11T20:39:54.277Z,61.73
2019-04-11T20:42:24.716Z,60.63
2019-04-11T20:44:58.271Z,60.54
2019-04-11T20:47:26.196Z,60.40
2019-04-11T20:49:55.789Z,64.67
2019-04-11T20:52:25.415Z,66.48
2019-04-11T20:54:55.012Z,68.78
2019-04-11T20:57:25.767Z,68.05
2019-04-11T20:59:55.889Z,65.49
2019-04-11T21:02:28.359Z,65.95
2019-04-11T21:04:58.949Z,65.28
2019-04-11T21:07:31.817Z,63.77
2019-04-11T21:10:03.580Z,62.26
2019-04-11T21:12:30.990Z,64.58
2019-04-11T21:15:00.560Z,66.86
2019-04-11T21:17:30.165Z,69.08
2019-04-11T21:19:59.923Z,70.58
2019-04-11T21:22:29.577Z,73.27
2019-04-11T21:24:59.711Z,83.09
2019-04-11T21:27:29.680Z,77.20
2019-04-11T21:30:00.081Z,78.32
2019-04-11T21:32:31.905Z,73.32
2019-04-11T21:35:02.361Z,71.52
2019-04-11T21:37:32.596Z,72.96
2019-04-11T21:40:02.218Z,71.86
2019-04-11T21:42:35.856Z,69.40
2019-04-11T21:45:05.952Z,70.24
2019-04-11T21:47:37.077Z,72.07
2019-04-11T21:50:09.098Z,71.99
2019-04-11T21:52:38.197Z,71.18
2019-04-11T21:55:07.910Z,72.59
2019-04-11T21:57:37.541Z,72.60
2019-04-11T22:00:13.812Z,73.67
2019-04-11T22:02:43.678Z,72.24
2019-04-11T22:05:13.732Z,73.92
2019-04-11T22:07:43.365Z,76.82
2019-04-11T22:10:13.264Z,72.37
2019-04-11T22:12:42.923Z,70.84
2019-04-11T22:15:13.140Z,71.73
2019-04-11T22:17:42.899Z,68.99
2019-04-11T22:20:16.513Z,66.94
2019-04-11T22:22:45.621Z,66.55
2019-04-11T22:25:15.279Z,67.65
2019-04-11T22:27:44.933Z,69.25
2019-04-11T22:30:16.427Z,66.49
2019-04-11T22:32:47.811Z,67.25
2019-04-11T22:35:17.412Z,66.17
2019-04-11T22:37:47.045Z,67.83
2019-04-11T22:40:16.668Z,67.21
2019-04-11T22:42:46.422Z,66.53
2019-04-11T22:45:16.007Z,66.82
2019-04-11T22:47:45.676Z,67.87
2019-04-11T22:50:15.359Z,67.72
2019-04-11T22:52:45.882Z,66.96
2019-04-11T22:55:15.563Z,66.75
2019-04-11T22:57:45.202Z,69.25
2019-04-11T23:00:15.886Z,67.29
2019-04-11T23:02:55.010Z,66.28
2019-04-11T23:05:24.607Z,64.90
2019-04-11T23:07:54.229Z,66.26
2019-04-11T23:10:23.832Z,75.78
2019-04-11T23:12:53.515Z,75.72
2019-04-11T23:15:23.162Z,74.98
2019-04-11T23:17:52.786Z,74.93
2019-04-11T23:20:22.393Z,76.85
2019-04-11T23:22:51.978Z,83.25
2019-04-11T23:25:21.601Z,81.43
2019-04-11T23:27:51.205Z,87.49
2019-04-11T23:30:20.819Z,92.98
2019-04-11T23:32:51.706Z,97.89
2019-04-11T23:35:21.810Z,95.84
2019-04-11T23:37:52.082Z,99.59
2019-04-11T23:40:22.214Z,100.00
2019-04-11T23:42:52.221Z,100.00
2019-04-11T23:45:24.515Z,100.00
2019-04-11T23:47:54.434Z,100.00
2019-04-11T23:50:25.179Z,100.00
2019-04-11T23:52:57.874Z,100.00
2019-04-11T23:55:29.952Z,100.00
2019-04-11T23:58:01.231Z,100.00
